Time;durP1;ratioP1;P1;durP2;ratioP2;P2;SDS_P1;SDS_P2;PMS_P1;PMS_P2;Temp;Humidity;BMP_temperature;BMP_pressure;BME280_temperature;BME280_humidity;BME280_pressure;Samples;Min_cycle;Max_cycle;Signal;HPM_P1;HPM_P2
2021/11/16 00:01:39;;;;;;;;;7.33;7.33;;;;;18.68;42.86;102145.63;5100424;27;47099;-59
2021/11/16 00:04:08;;;;;;;;;9.00;8.00;;;;;18.67;42.66;102142.97;5100329;27;45326;-59
2021/11/16 00:06:34;;;;;;;;;9.67;8.00;;;;;18.67;43.08;102129.66;5100697;27;45344;-59
2021/11/16 00:09:02;;;;;;;;;8.33;6.67;;;;;18.67;42.87;102137.66;5100666;27;45307;-59
2021/11/16 00:11:28;;;;;;;;;8.00;7.33;;;;;18.66;42.88;102138.50;5100241;27;47266;-59
2021/11/16 00:13:54;;;;;;;;;7.00;6.33;;;;;18.65;42.74;102140.31;5100206;27;45213;-59
2021/11/16 00:16:20;;;;;;;;;9.00;9.00;;;;;18.65;42.96;102139.41;5100517;27;45267;-59
2021/11/16 00:18:47;;;;;;;;;15.00;9.00;;;;;18.63;42.97;102131.41;5100535;27;45454;-59
2021/11/16 00:21:14;;;;;;;;;8.00;7.67;;;;;18.64;42.85;102135.84;5100057;27;47490;-59
2021/11/16 00:23:41;;;;;;;;;8.00;8.00;;;;;18.62;42.93;102127.84;5100076;27;45341;-59
2021/11/16 00:26:12;;;;;;;;;7.00;6.00;;;;;18.62;42.59;102122.53;5100021;27;45485;-58
2021/11/16 00:28:37;;;;;;;;;11.00;10.00;;;;;18.62;42.86;102125.19;5100320;27;45457;-58
2021/11/16 00:31:03;;;;;;;;;7.00;7.00;;;;;18.62;42.88;102127.84;5099947;27;47029;-59
2021/11/16 00:33:31;;;;;;;;;11.00;8.67;;;;;18.61;42.61;102119.88;5100149;27;45320;-58
2021/11/16 00:35:57;;;;;;;;;7.00;6.00;;;;;18.60;42.86;102116.31;5099110;27;45316;-58
2021/11/16 00:38:25;;;;;;;;;9.33;7.33;;;;;18.60;42.96;102104.75;5099868;27;45358;-58
2021/11/16 00:40:51;;;;;;;;;8.00;7.33;;;;;18.58;42.65;102103.84;5099959;27;46689;-58
2021/11/16 00:43:16;;;;;;;;;8.67;7.00;;;;;18.58;42.68;102102.09;5099658;27;45234;-58
2021/11/16 00:45:44;;;;;;;;;7.33;7.00;;;;;18.57;42.76;102092.31;5100158;27;45226;-58
2021/11/16 00:48:10;;;;;;;;;8.67;7.00;;;;;18.56;42.79;102087.88;5100142;27;45489;-58
2021/11/16 00:50:38;;;;;;;;;8.33;7.67;;;;;18.57;42.76;102089.66;5099607;27;46099;-59
2021/11/16 00:53:05;;;;;;;;;9.00;8.33;;;;;18.56;42.78;102093.19;5099665;27;45332;-58
2021/11/16 00:55:31;;;;;;;;;9.00;7.67;;;;;18.55;42.58;102082.56;5099616;27;45281;-58
2021/11/16 00:57:56;;;;;;;;;9.00;7.33;;;;;18.55;42.71;102088.75;5099698;27;45474;-59
2021/11/16 01:00:22;;;;;;;;;8.33;6.33;;;;;18.55;42.82;102079.91;5099587;27;46079;-59
2021/11/16 01:02:48;;;;;;;;;8.33;8.33;;;;;18.54;42.80;102075.44;5099447;27;45419;-59
2021/11/16 01:05:15;;;;;;;;;8.00;6.00;;;;;18.53;42.75;102077.19;5099689;27;45428;-59
2021/11/16 01:07:42;;;;;;;;;5.67;5.67;;;;;18.51;42.50;102079.84;5099841;27;45408;-59
2021/11/16 01:10:14;;;;;;;;;10.00;8.33;;;;;18.51;42.38;102079.84;5099213;27;45990;-58
2021/11/16 01:12:40;;;;;;;;;6.67;6.00;;;;;18.51;42.63;102076.28;5099235;27;45247;-58
2021/11/16 01:15:08;;;;;;;;;13.67;6.00;;;;;18.51;42.82;102073.63;5099465;27;45335;-58
2021/11/16 01:17:33;;;;;;;;;6.00;5.33;;;;;18.50;42.44;102071.88;5099471;27;45476;-59
2021/11/16 01:19:59;;;;;;;;;6.00;6.00;;;;;18.49;42.69;102075.41;5099362;27;45269;-59
2021/11/16 01:22:25;;;;;;;;;7.67;6.33;;;;;18.48;42.87;102074.53;5099436;27;45279;-58
2021/11/16 01:24:50;;;;;;;;;7.00;6.00;;;;;18.48;42.44;102069.22;5099125;27;45523;-59
2021/11/16 01:27:20;;;;;;;;;8.00;7.00;;;;;18.48;42.63;102070.97;5099304;27;45321;-58
2021/11/16 01:29:49;;;;;;;;;6.33;6.00;;;;;18.47;42.59;102069.16;5099033;27;46175;-58
2021/11/16 01:35:16;;;;;;;;;7.00;6.00;;;;;18.46;42.68;102070.06;5076502;28;45567;-58
2021/11/16 01:37:43;;;;;;;;;10.67;6.00;;;;;18.45;42.31;102073.59;5076379;28;45362;-59
2021/11/16 01:40:17;;;;;;;;;6.00;6.00;;;;;18.46;42.88;102076.28;5076141;28;45438;-58
2021/11/16 01:42:45;;;;;;;;;5.00;5.00;;;;;18.45;42.64;102073.59;5076434;28;45390;-59
2021/11/16 01:45:11;;;;;;;;;9.00;8.00;;;;;18.45;42.53;102073.59;5076332;28;45613;-59
2021/11/16 01:47:37;;;;;;;;;7.33;6.67;;;;;18.45;42.60;102079.81;5076353;28;45385;-58
2021/11/16 01:50:04;;;;;;;;;10.33;6.33;;;;;18.45;42.70;102086.91;5075773;28;46520;-58
2021/11/16 01:52:30;;;;;;;;;7.67;6.67;;;;;18.44;42.34;102077.16;5076018;28;45326;-58
2021/11/16 01:54:56;;;;;;;;;7.67;6.67;;;;;18.42;42.58;102076.25;5076075;28;45385;-58
2021/11/16 01:57:21;;;;;;;;;5.33;4.67;;;;;18.43;42.72;102080.69;5059410;28;45308;-58
2021/11/16 01:59:47;;;;;;;;;6.67;6.00;;;;;18.42;42.71;102078.91;5076144;28;47088;-59
2021/11/16 02:02:13;;;;;;;;;7.00;7.00;;;;;18.42;42.58;102076.25;5075808;28;45459;-58
2021/11/16 02:04:38;;;;;;;;;6.33;6.00;;;;;18.42;42.64;102078.91;5076090;28;45302;-59
2021/11/16 02:07:06;;;;;;;;;6.00;6.00;;;;;18.39;42.65;102063.81;5076244;28;45274;-59
2021/11/16 02:09:31;;;;;;;;;7.00;7.00;;;;;18.40;42.59;102076.25;5089744;27;46221;-58
2021/11/16 02:11:57;;;;;;;;;6.67;4.67;;;;;18.37;42.63;102061.16;5098588;27;45253;-59
2021/11/16 02:14:22;;;;;;;;;6.67;6.00;;;;;18.38;42.52;102067.38;5098645;27;45274;-58
2021/11/16 02:16:48;;;;;;;;;7.67;5.67;;;;;18.38;42.43;102067.38;5098988;27;45365;-59
2021/11/16 02:19:17;;;;;;;;;5.33;5.33;;;;;18.36;42.48;102067.34;5098404;27;45411;-58
2021/11/16 02:21:43;;;;;;;;;5.33;5.00;;;;;18.38;42.42;102070.03;5098338;27;45198;-59
2021/11/16 02:24:09;;;;;;;;;5.67;5.00;;;;;18.37;42.75;102066.47;5098235;27;45255;-58
2021/11/16 02:26:35;;;;;;;;;5.67;4.67;;;;;18.36;42.56;102059.34;5098850;27;45394;-58
2021/11/16 02:29:02;;;;;;;;;5.33;3.67;;;;;18.35;42.56;102052.25;5098530;27;47148;-58
2021/11/16 02:31:28;;;;;;;;;5.67;5.67;;;;;18.35;42.36;102062.00;5098250;27;45766;-58
2021/11/16 02:33:53;;;;;;;;;6.00;5.33;;;;;18.36;42.56;102059.34;5098323;27;45423;-60
2021/11/16 02:36:20;;;;;;;;;7.33;6.33;;;;;18.33;42.51;102056.69;5098502;27;45361;-58
2021/11/16 02:38:47;;;;;;;;;6.00;5.00;;;;;18.34;42.47;102061.13;5097939;27;46181;-58
2021/11/16 02:41:13;;;;;;;;;7.67;6.67;;;;;18.34;42.48;102055.78;5098246;27;45187;-59
2021/11/16 02:43:40;;;;;;;;;5.67;5.67;;;;;18.34;42.57;102063.78;5098190;27;45171;-58
2021/11/16 02:46:06;;;;;;;;;4.00;4.00;;;;;18.33;42.75;102055.78;5098476;27;45427;-59
2021/11/16 02:48:34;;;;;;;;;8.00;6.67;;;;;18.33;42.61;102059.34;5098153;27;46478;-58
2021/11/16 02:51:02;;;;;;;;;8.00;6.00;;;;;18.33;42.79;102056.69;5097723;27;45422;-58
2021/11/16 02:53:28;;;;;;;;;6.67;6.67;;;;;18.33;42.55;102061.13;5098114;27;45257;-59
2021/11/16 02:55:54;;;;;;;;;6.33;5.00;;;;;18.32;42.50;102046.03;5098399;27;45390;-58
2021/11/16 02:58:21;;;;;;;;;5.33;4.33;;;;;18.30;42.63;102051.31;5099397;27;47395;-58
2021/11/16 03:00:51;;;;;;;;;5.00;5.00;;;;;18.31;42.42;102047.81;5101733;27;45313;-59
2021/11/16 03:03:18;;;;;;;;;8.00;6.00;;;;;18.30;42.33;102050.47;5101471;27;45314;-58
2021/11/16 03:05:44;;;;;;;;;7.33;6.33;;;;;18.30;42.24;102051.31;5101765;27;45230;-58
2021/11/16 03:08:21;;;;;;;;;7.33;6.00;;;;;18.29;42.79;102052.22;5101157;27;46101;-59
2021/11/16 03:10:46;;;;;;;;;4.00;4.00;;;;;18.28;42.56;102043.34;5101396;27;45427;-58
2021/11/16 03:13:13;;;;;;;;;6.00;4.33;;;;;18.28;42.71;102046.00;5101513;27;45468;-58
2021/11/16 03:15:41;;;;;;;;;6.00;4.33;;;;;18.28;42.69;102040.69;5101719;27;45399;-59
2021/11/16 03:18:07;;;;;;;;;7.00;5.00;;;;;18.28;42.53;102047.78;5101006;27;46200;-58
2021/11/16 03:20:33;;;;;;;;;9.33;6.33;;;;;18.27;42.52;102046.88;5101251;27;45336;-58
2021/11/16 03:23:09;;;;;;;;;5.00;5.00;;;;;18.28;42.46;102050.44;5101320;27;45223;-58
2021/11/16 03:25:38;;;;;;;;;5.00;4.00;;;;;18.27;42.26;102048.66;5101358;27;45309;-58
2021/11/16 03:28:08;;;;;;;;;6.33;4.00;;;;;18.27;42.49;102043.34;5101221;27;46290;-58
2021/11/16 03:30:34;;;;;;;;;6.00;4.00;;;;;18.26;42.35;102050.44;5101200;27;45257;-58
2021/11/16 03:33:00;;;;;;;;;5.00;5.00;;;;;18.26;42.34;102041.53;5100990;27;45355;-58
2021/11/16 03:35:26;;;;;;;;;5.33;4.33;;;;;18.25;42.38;102037.97;5101312;27;45578;-58
2021/11/16 03:37:57;;;;;;;;;6.00;5.67;;;;;18.25;42.06;102040.66;5100612;27;46371;-58
2021/11/16 03:40:23;;;;;;;;;5.33;4.00;;;;;18.25;42.56;102047.78;5100909;27;45438;-58
2021/11/16 03:42:50;;;;;;;;;4.00;4.00;;;;;18.25;42.46;102045.09;5101255;27;45170;-58
2021/11/16 03:45:26;;;;;;;;;5.00;5.00;;;;;18.24;42.32;102049.53;5099878;27;45416;-58
2021/11/16 03:47:54;;;;;;;;;5.00;4.67;;;;;18.24;42.38;102049.53;5100596;27;46373;-58
2021/11/16 03:50:24;;;;;;;;;4.67;4.00;;;;;18.23;42.33;102052.19;5100770;27;45466;-57
2021/11/16 03:52:54;;;;;;;;;4.33;4.33;;;;;18.22;42.52;102045.06;5100792;27;45257;-58
2021/11/16 03:55:22;;;;;;;;;4.33;4.33;;;;;18.22;42.44;102047.72;5100860;27;45576;-58
2021/11/16 03:57:49;;;;;;;;;6.00;3.33;;;;;18.23;42.17;102041.53;5100744;27;47211;-58
2021/11/16 04:00:18;;;;;;;;;5.00;4.00;;;;;18.23;42.13;102044.22;5100510;27;45222;-57
2021/11/16 04:02:45;;;;;;;;;7.00;4.33;;;;;18.22;42.17;102042.41;5100517;27;45384;-58
2021/11/16 04:05:12;;;;;;;;;4.00;4.00;;;;;18.22;42.29;102045.97;5100789;27;45497;-57
2021/11/16 04:07:37;;;;;;;;;4.00;4.00;;;;;18.20;42.10;102050.38;5100449;27;47272;-57
2021/11/16 04:10:11;;;;;;;;;3.33;3.33;;;;;18.21;42.39;102046.84;5100397;27;45375;-58
2021/11/16 04:12:37;;;;;;;;;8.00;7.00;;;;;18.19;42.18;102040.59;5100570;27;45380;-57
2021/11/16 04:15:03;;;;;;;;;7.00;4.00;;;;;18.20;42.26;102045.06;5100395;27;45438;-57
2021/11/16 04:17:28;;;;;;;;;4.00;4.00;;;;;18.19;42.41;102040.59;5100284;27;46559;-57
2021/11/16 04:19:54;;;;;;;;;4.00;4.00;;;;;18.20;42.29;102046.84;5100361;27;45214;-57
2021/11/16 04:22:19;;;;;;;;;4.33;4.33;;;;;18.20;42.54;102044.16;5100569;27;45211;-58
2021/11/16 04:24:45;;;;;;;;;5.00;4.67;;;;;18.20;42.21;102052.16;5100560;27;45547;-58
2021/11/16 04:27:10;;;;;;;;;4.33;4.33;;;;;18.19;42.34;102045.94;5100143;27;46921;-58
2021/11/16 04:29:35;;;;;;;;;6.00;5.00;;;;;18.19;42.27;102047.72;5100051;27;45230;-57
2021/11/16 04:32:01;;;;;;;;;5.67;4.67;;;;;18.17;42.37;102037.94;5100240;27;45322;-57
2021/11/16 04:34:26;;;;;;;;;3.00;3.00;;;;;18.17;42.12;102040.59;5099343;27;45440;-58
2021/11/16 04:36:52;;;;;;;;;4.67;4.00;;;;;18.17;42.45;102039.72;5100127;27;47250;-57
2021/11/16 04:39:18;;;;;;;;;4.67;4.33;;;;;18.17;42.31;102040.59;5099894;27;45485;-58
2021/11/16 04:41:44;;;;;;;;;4.00;4.00;;;;;18.15;42.43;102042.34;5100233;27;45342;-58
2021/11/16 04:44:10;;;;;;;;;6.00;5.00;;;;;18.17;42.37;102042.38;5100143;27;45484;-57
2021/11/16 04:46:36;;;;;;;;;4.33;4.33;;;;;18.15;42.31;102042.34;5099677;27;46780;-57
2021/11/16 04:49:09;;;;;;;;;8.33;5.33;;;;;18.15;42.35;102038.78;5099656;27;45383;-57
2021/11/16 04:59:40;;;;;;;;;8.00;6.00;;;;;18.14;42.40;102042.34;5099555;27;45333;-57
2021/11/16 05:04:51;;;;;;;;;4.00;3.00;;;;;18.12;42.52;102055.63;5099833;27;45383;-57
2021/11/16 05:07:18;;;;;;;;;5.00;5.00;;;;;18.12;42.46;102044.09;5099418;27;46232;-57
2021/11/16 05:09:49;;;;;;;;;7.33;4.00;;;;;18.12;42.48;102047.66;5099547;27;45183;-57
2021/11/16 05:12:15;;;;;;;;;4.67;4.67;;;;;18.12;42.67;102054.75;5099548;27;45373;-58
2021/11/16 05:14:40;;;;;;;;;4.33;4.33;;;;;18.12;42.60;102054.75;5099626;27;45461;-58
2021/11/16 05:17:06;;;;;;;;;6.67;5.00;;;;;18.10;42.50;102046.75;5099412;27;45698;-59
2021/11/16 05:19:31;;;;;;;;;5.00;5.00;;;;;18.11;42.42;102047.63;5099414;27;45442;-59
2021/11/16 05:21:57;;;;;;;;;5.00;4.00;;;;;18.10;42.52;102044.09;5098980;27;45291;-57
2021/11/16 05:24:24;;;;;;;;;5.00;5.00;;;;;18.09;42.38;102047.63;5099690;27;45304;-57
2021/11/16 05:26:51;;;;;;;;;4.67;4.00;;;;;18.10;42.37;102052.06;5099195;27;47170;-57
2021/11/16 05:29:16;;;;;;;;;3.67;2.00;;;;;18.09;42.37;102044.97;5099211;27;45288;-58
2021/11/16 05:31:42;;;;;;;;;8.00;6.00;;;;;18.09;42.34;102055.59;5099260;27;45553;-58
2021/11/16 05:34:07;;;;;;;;;3.67;3.67;;;;;18.08;42.41;102051.19;5099862;27;45198;-57
2021/11/16 05:36:32;;;;;;;;;7.67;5.67;;;;;18.06;42.42;102045.81;5099242;27;46310;-57
2021/11/16 05:38:58;;;;;;;;;5.67;5.00;;;;;18.10;42.54;102059.16;5098526;27;45454;-57
2021/11/16 05:41:23;;;;;;;;;5.00;5.00;;;;;18.08;42.46;102056.50;5099330;27;45457;-57
2021/11/16 05:43:49;;;;;;;;;7.00;5.33;;;;;18.08;42.63;102055.59;5099142;27;45328;-57
2021/11/16 05:46:20;;;;;;;;;6.33;4.00;;;;;18.08;42.66;102064.47;5098906;27;46059;-58
2021/11/16 05:48:47;;;;;;;;;7.33;4.00;;;;;18.09;42.56;102054.69;5099041;27;45249;-58
2021/11/16 05:51:12;;;;;;;;;8.33;6.00;;;;;18.09;42.50;102058.25;5098913;27;45350;-58
2021/11/16 05:53:40;;;;;;;;;6.00;6.00;;;;;18.10;42.68;102062.72;5099038;27;45595;-58
2021/11/16 05:56:06;;;;;;;;;5.00;4.33;;;;;18.10;42.65;102054.75;5098747;27;46405;-58
2021/11/16 05:58:31;;;;;;;;;4.00;4.00;;;;;18.12;42.61;102060.97;5098667;27;45294;-58
2021/11/16 06:00:57;;;;;;;;;4.00;4.00;;;;;18.15;42.61;102063.63;5099014;27;45309;-58
2021/11/16 06:03:23;;;;;;;;;4.33;3.00;;;;;18.15;42.77;102063.63;5099066;27;45289;-57
2021/11/16 06:05:48;;;;;;;;;5.00;4.33;;;;;18.17;42.84;102058.34;5098600;27;46147;-57
2021/11/16 06:08:25;;;;;;;;;6.00;5.00;;;;;18.20;42.90;102065.47;5098553;27;45336;-58
2021/11/16 06:10:51;;;;;;;;;5.00;5.00;;;;;18.21;43.04;102060.13;5098889;27;45287;-58
2021/11/16 06:13:17;;;;;;;;;5.00;3.00;;;;;18.23;43.26;102057.50;5098959;27;45243;-58
2021/11/16 06:15:42;;;;;;;;;3.67;3.67;;;;;18.23;43.31;102061.03;5098486;27;47183;-57
2021/11/16 06:18:08;;;;;;;;;3.00;3.00;;;;;18.27;43.18;102059.31;5098588;27;45334;-58
2021/11/16 06:20:34;;;;;;;;;4.67;3.67;;;;;18.28;43.38;102066.41;5098822;27;45364;-58
2021/11/16 06:23:00;;;;;;;;;4.00;3.33;;;;;18.30;43.38;102067.31;5097430;27;45279;-58
2021/11/16 06:25:25;;;;;;;;;5.00;4.33;;;;;18.31;43.34;102063.78;5098200;27;46240;-58
2021/11/16 06:27:50;;;;;;;;;5.33;3.67;;;;;18.32;43.40;102065.53;5098293;27;45426;-58
2021/11/16 06:30:16;;;;;;;;;5.00;3.67;;;;;18.34;43.16;102068.25;5098581;27;45288;-58
2021/11/16 06:32:43;;;;;;;;;4.00;4.00;;;;;18.36;43.32;102070.00;5097600;27;45560;-59
2021/11/16 06:35:16;;;;;;;;;7.00;4.00;;;;;18.38;43.44;102078.03;5101843;27;46327;-58
2021/11/16 06:37:42;;;;;;;;;4.00;2.33;;;;;18.38;43.40;102065.56;5101561;27;45596;-58
2021/11/16 06:40:07;;;;;;;;;5.00;3.00;;;;;18.39;43.30;102078.03;5101782;27;45481;-58
2021/11/16 06:42:33;;;;;;;;;7.33;4.00;;;;;18.42;43.31;102070.94;5102054;27;45257;-57
2021/11/16 06:44:58;;;;;;;;;4.00;4.00;;;;;18.42;43.46;102074.50;5101516;27;46868;-58
2021/11/16 06:47:24;;;;;;;;;4.00;3.00;;;;;18.43;43.39;102076.25;5101791;27;45221;-58
2021/11/16 06:49:50;;;;;;;;;3.00;3.00;;;;;18.46;43.61;102080.72;5101683;27;45307;-57
2021/11/16 06:52:17;;;;;;;;;4.67;4.33;;;;;18.46;43.42;102075.41;5101748;27;45202;-57
2021/11/16 06:54:43;;;;;;;;;3.00;3.00;;;;;18.47;43.66;102078.06;5101585;27;46144;-57
2021/11/16 06:57:08;;;;;;;;;5.33;3.00;;;;;18.46;43.64;102067.41;5101448;27;45436;-57
2021/11/16 06:59:34;;;;;;;;;5.67;5.33;;;;;18.50;43.53;102079.84;5101659;27;45286;-58
2021/11/16 07:01:59;;;;;;;;;3.67;3.67;;;;;18.51;43.78;102084.28;5101795;27;45289;-58
2021/11/16 07:04:37;;;;;;;;;5.00;5.00;;;;;18.52;43.70;102078.09;5101263;27;46029;-57
2021/11/16 07:07:04;;;;;;;;;4.00;3.33;;;;;18.52;43.62;102075.44;5101635;27;45461;-60
2021/11/16 07:09:36;;;;;;;;;6.67;4.00;;;;;18.52;43.38;102080.75;5101283;27;45358;-62
2021/11/16 07:12:08;;;;;;;;;8.00;5.00;;;;;18.53;43.59;102082.53;5101642;27;45259;-59
2021/11/16 07:14:37;;;;;;;;;4.67;4.67;;;;;18.54;43.66;102084.31;5101042;27;46996;-58
2021/11/16 07:17:06;;;;;;;;;4.00;4.00;;;;;18.56;43.66;102092.31;5101305;27;45404;-58
2021/11/16 07:19:35;;;;;;;;;4.33;4.33;;;;;18.55;43.60;102091.41;5101264;27;45219;-58
2021/11/16 07:22:07;;;;;;;;;4.00;4.00;;;;;18.56;43.62;102089.66;5101523;27;45439;-57
2021/11/16 07:24:40;;;;;;;;;3.67;3.67;;;;;18.57;43.99;102080.78;5101168;27;45958;-57
2021/11/16 07:27:07;;;;;;;;;5.00;5.00;;;;;18.57;43.71;102083.44;5101125;27;45248;-61
2021/11/16 07:29:40;;;;;;;;;5.00;5.00;;;;;18.57;43.91;102083.44;5101340;27;45250;-58
2021/11/16 07:32:07;;;;;;;;;6.00;4.00;;;;;18.57;43.66;102086.97;5101219;27;45415;-57
2021/11/16 07:34:35;;;;;;;;;7.67;4.67;;;;;18.59;43.58;102087.00;5101059;27;47149;-60
2021/11/16 07:37:03;;;;;;;;;5.00;5.00;;;;;18.59;43.66;102095.88;5100978;27;45372;-59
2021/11/16 07:39:42;;;;;;;;;9.00;6.33;;;;;18.58;43.32;102085.22;5101110;27;45358;-59
2021/11/16 07:42:09;;;;;;;;;6.00;5.33;;;;;18.58;43.41;102082.56;5101181;27;45209;-58
2021/11/16 07:44:35;;;;;;;;;7.33;5.67;;;;;18.58;43.40;102082.56;5100312;27;46202;-58
2021/11/16 07:47:01;;;;;;;;;8.00;5.00;;;;;18.57;43.41;102080.78;5100567;27;45448;-58
2021/11/16 07:49:26;;;;;;;;;5.33;5.33;;;;;18.56;43.38;102087.88;5100845;27;45333;-58
2021/11/16 07:51:54;;;;;;;;;7.67;6.00;;;;;18.57;43.34;102086.97;5100971;27;45415;-58
2021/11/16 07:54:31;;;;;;;;;2.33;0.67;;;;;18.57;43.27;102084.31;5099642;27;47318;-58
2021/11/16 07:57:04;;;;;;;;;7.00;4.67;;;;;18.58;43.18;102080.78;5100698;27;45324;-58
2021/11/16 07:59:30;;;;;;;;;6.00;4.00;;;;;18.57;43.09;102084.31;5100765;27;45216;-58
2021/11/16 08:07:34;;;;;;;;;6.00;5.33;;;;;18.57;43.20;102076.31;5077772;28;45276;-58
2021/11/16 08:10:05;;;;;;;;;8.00;7.00;;;;;18.58;43.24;102080.78;5077836;28;45377;-58
2021/11/16 08:12:38;;;;;;;;;6.67;6.67;;;;;18.58;43.38;102080.78;5078269;28;45478;-58
2021/11/16 08:15:10;;;;;;;;;4.67;4.67;;;;;18.58;43.10;102091.44;5077636;28;46296;-58
2021/11/16 08:17:37;;;;;;;;;9.00;7.00;;;;;18.58;43.13;102086.13;5077761;28;45410;-58
2021/11/16 08:20:14;;;;;;;;;6.00;5.33;;;;;18.59;43.45;102087.00;5077995;28;45343;-58
2021/11/16 08:22:40;;;;;;;;;6.67;5.67;;;;;18.59;43.40;102093.19;5077810;28;45478;-58
2021/11/16 08:25:06;;;;;;;;;8.67;6.67;;;;;18.60;43.17;102088.78;5077534;28;46925;-58
2021/11/16 08:27:38;;;;;;;;;16.00;7.00;;;;;18.60;43.47;102087.00;5077425;28;45466;-58
2021/11/16 08:30:13;;;;;;;;;13.33;9.33;;;;;18.61;43.60;102091.44;5077479;28;45373;-58
2021/11/16 08:32:42;;;;;;;;;15.67;11.00;;;;;18.62;43.46;102093.25;5077514;28;45362;-58
2021/11/16 08:35:15;;;;;;;;;21.33;11.33;;;;;18.62;43.21;102085.25;5077232;28;46224;-58
2021/11/16 08:37:41;;;;;;;;;17.33;11.67;;;;;18.62;43.38;102077.25;5077219;28;45279;-58
2021/11/16 08:40:14;;;;;;;;;23.67;15.33;;;;;18.63;43.44;102067.50;5077458;28;45598;-58
2021/11/16 08:42:51;;;;;;;;;24.33;15.33;;;;;18.64;43.40;102079.91;5077603;28;45406;-58
2021/11/16 08:45:22;;;;;;;;;22.33;13.67;;;;;18.64;43.35;102074.59;5098961;27;46443;-58
2021/11/16 08:47:50;;;;;;;;;19.00;14.00;;;;;18.65;43.29;102064.84;5099749;27;45470;-58
2021/11/16 08:50:28;;;;;;;;;27.33;14.33;;;;;18.64;43.20;102058.63;5098716;27;45347;-58
2021/11/16 08:52:54;;;;;;;;;18.67;13.00;;;;;18.63;43.35;102052.38;5100156;27;45246;-58
2021/11/16 08:55:22;;;;;;;;;16.33;10.33;;;;;18.65;43.04;102059.50;5098621;27;46157;-58
2021/11/16 08:57:52;;;;;;;;;16.33;10.67;;;;;18.64;43.13;102055.94;5099641;27;45260;-58
2021/11/16 09:00:37;;;;;;;;;17.67;14.00;;;;;18.65;42.99;102059.50;5099559;27;45328;-58
2021/11/16 09:03:15;;;;;;;;;18.67;14.33;;;;;18.66;42.88;102063.94;5099628;27;45420;-58
2021/11/16 09:05:45;;;;;;;;;17.67;12.00;;;;;18.66;42.96;102063.94;5099330;27;46270;-58
2021/11/16 09:08:29;;;;;;;;;15.67;11.67;;;;;18.65;42.86;102076.41;5099337;27;45458;-59
2021/11/16 09:10:57;;;;;;;;;12.33;8.67;;;;;18.65;42.87;102065.75;5099543;27;45277;-58
2021/11/16 09:13:26;;;;;;;;;15.33;9.33;;;;;18.65;42.92;102065.75;5099807;27;45373;-59
2021/11/16 09:15:55;;;;;;;;;14.00;11.33;;;;;18.66;42.78;102058.63;5099164;27;46235;-58
2021/11/16 09:18:29;;;;;;;;;14.33;10.00;;;;;18.66;42.66;102055.94;5099308;27;45302;-58
2021/11/16 09:20:57;;;;;;;;;12.00;7.67;;;;;18.66;42.59;102061.28;5099518;27;45277;-58
2021/11/16 09:23:26;;;;;;;;;11.33;7.67;;;;;18.65;42.83;102054.19;5099487;27;45308;-58
2021/11/16 09:25:55;;;;;;;;;11.00;10.33;;;;;18.65;42.58;102051.53;5099004;27;47274;-58
2021/11/16 09:28:34;;;;;;;;;17.67;11.33;;;;;18.65;42.32;102048.88;5099124;27;45442;-59
2021/11/16 09:31:20;;;;;;;;;15.33;7.67;;;;;18.65;42.38;102043.53;5099275;27;45209;-59
2021/11/16 09:33:47;;;;;;;;;11.00;7.67;;;;;18.67;42.46;102044.44;5099332;27;45248;-59
2021/11/16 09:36:21;;;;;;;;;12.33;9.67;;;;;18.66;42.39;102045.28;5098835;27;47052;-59
2021/11/16 09:38:50;;;;;;;;;13.33;7.67;;;;;18.65;42.35;102047.09;5097290;27;45231;-58
2021/11/16 09:41:22;;;;;;;;;10.33;7.33;;;;;18.65;42.51;102035.53;5098978;27;45325;-59
2021/11/16 09:43:56;;;;;;;;;15.33;7.00;;;;;18.66;42.09;102039.97;5099200;27;45218;-59
2021/11/16 09:46:24;;;;;;;;;7.67;7.33;;;;;18.65;41.96;102039.09;5098891;27;47509;-59
2021/11/16 09:49:02;;;;;;;;;14.33;10.33;;;;;18.65;42.05;102033.78;5098795;27;45389;-59
2021/11/16 09:51:28;;;;;;;;;21.00;15.00;;;;;18.66;42.13;102034.66;5098802;27;45352;-59
2021/11/16 09:54:06;;;;;;;;;33.67;23.67;;;;;18.66;42.10;102040.88;5098966;27;45264;-59
2021/11/16 09:56:34;;;;;;;;;56.50;32.50;;;;;18.65;42.41;102036.44;5098451;27;47157;-59
2021/11/16 09:59:00;;;;;;;;;56.25;37.25;;;;;18.66;42.12;102039.97;5098654;27;45259;-59
2021/11/16 10:01:33;;;;;;;;;46.33;26.33;;;;;18.66;42.12;102040.88;5098639;27;45589;-59
2021/11/16 10:04:16;;;;;;;;;37.67;25.33;;;;;18.66;42.43;102034.66;5098701;27;45429;-58
2021/11/16 10:06:42;;;;;;;;;42.67;22.33;;;;;18.67;42.32;102037.34;5098183;27;46345;-59
2021/11/16 10:09:10;;;;;;;;;39.50;28.50;;;;;18.66;42.41;102035.53;5098474;27;45301;-58
2021/11/16 10:11:41;;;;;;;;;44.33;27.00;;;;;18.66;42.33;102040.88;5098750;27;45387;-59
2021/11/16 10:14:08;;;;;;;;;32.00;25.00;;;;;18.66;42.33;102046.19;5098744;27;45511;-59
2021/11/16 10:16:34;;;;;;;;;39.00;25.00;;;;;18.67;42.34;102041.75;5098070;27;46194;-59
2021/11/16 10:18:59;;;;;;;;;45.25;24.50;;;;;18.68;42.42;102046.19;5098211;27;45409;-59
2021/11/16 10:21:25;;;;;;;;;32.00;21.00;;;;;18.67;42.59;102047.09;5098524;27;45320;-59
2021/11/16 10:23:54;;;;;;;;;42.25;25.50;;;;;18.68;42.42;102040.88;5098594;27;45519;-58
2021/11/16 10:26:20;;;;;;;;;40.00;29.00;;;;;18.68;42.61;102046.19;5098270;27;46195;-59
2021/11/16 10:28:48;;;;;;;;;38.00;27.50;;;;;18.68;42.54;102040.88;5098147;27;45257;-58
2021/11/16 10:31:14;;;;;;;;;46.75;26.75;;;;;18.69;42.60;102040.00;5098509;27;45424;-58
2021/11/16 10:33:49;;;;;;;;;37.50;27.75;;;;;18.70;42.45;102040.00;5098232;27;45502;-58
2021/11/16 10:36:17;;;;;;;;;35.00;23.00;;;;;18.70;42.72;102037.34;5098119;27;46233;-59
2021/11/16 10:38:46;;;;;;;;;33.33;20.67;;;;;18.71;42.45;102038.22;5097403;27;45423;-57
2021/11/16 10:41:14;;;;;;;;;32.67;23.67;;;;;18.71;42.62;102043.56;5097952;27;45234;-59
2021/11/16 10:43:49;;;;;;;;;33.00;22.00;;;;;18.71;42.62;102040.91;5098096;27;45396;-59
2021/11/16 10:46:16;;;;;;;;;29.50;22.75;;;;;18.71;42.26;102038.22;5097785;27;46467;-58
2021/11/16 10:48:41;;;;;;;;;38.50;21.00;;;;;18.71;42.40;102040.91;5097900;27;45273;-58
2021/11/16 10:51:10;;;;;;;;;31.33;21.33;;;;;18.71;42.80;102040.91;5097776;27;45473;-58
2021/11/16 10:53:37;;;;;;;;;40.67;21.33;;;;;18.71;42.31;102039.13;5098254;27;45470;-58
2021/11/16 10:56:05;;;;;;;;;27.67;20.67;;;;;18.72;42.42;102035.56;5097552;27;46200;-58
2021/11/16 10:58:50;;;;;;;;;27.00;18.00;;;;;18.72;42.47;102040.00;5097711;27;45447;-58
2021/11/16 11:01:21;;;;;;;;;25.00;17.33;;;;;18.72;42.33;102040.00;5097956;27;45477;-59
2021/11/16 11:03:51;;;;;;;;;25.33;17.00;;;;;18.71;42.36;102039.13;5098164;27;45378;-59
2021/11/16 11:06:35;;;;;;;;;20.33;14.00;;;;;18.73;42.49;102039.13;5097604;27;46325;-59
2021/11/16 11:09:03;;;;;;;;;24.33;16.00;;;;;18.72;42.15;102035.56;5097599;27;45312;-58
2021/11/16 11:11:35;;;;;;;;;23.33;16.00;;;;;18.71;42.24;102036.47;5097953;27;45354;-59
2021/11/16 11:14:09;;;;;;;;;22.00;16.67;;;;;18.71;42.25;102031.13;5097930;27;45299;-59
2021/11/16 11:16:39;;;;;;;;;21.33;15.00;;;;;18.71;42.32;102022.25;5097617;27;45329;-59
2021/11/16 11:19:08;;;;;;;;;23.67;17.67;;;;;18.72;42.37;102016.03;5098840;27;45382;-58
2021/11/16 11:21:57;;;;;;;;;14.67;10.33;;;;;18.72;42.07;102016.03;5101146;27;45317;-58
2021/11/16 11:24:43;;;;;;;;;24.00;14.67;;;;;18.71;42.21;102015.16;5101219;27;45389;-58
2021/11/16 11:30:08;;;;;;;;;25.00;13.33;;;;;18.71;41.90;102004.50;5100835;27;45270;-58
2021/11/16 11:32:41;;;;;;;;;16.33;11.67;;;;;18.72;42.12;102003.59;5101162;27;45317;-59
2021/11/16 11:35:10;;;;;;;;;21.33;14.67;;;;;18.72;41.93;101997.38;5101330;27;45426;-58
2021/11/16 11:37:44;;;;;;;;;19.33;12.67;;;;;18.72;41.94;102000.03;5100624;27;46342;-58
2021/11/16 11:40:19;;;;;;;;;16.67;13.67;;;;;18.72;41.80;102000.03;5100419;27;45345;-59
2021/11/16 11:42:44;;;;;;;;;19.00;14.00;;;;;18.72;41.85;101994.72;5100876;27;45274;-57
2021/11/16 11:45:24;;;;;;;;;17.33;12.33;;;;;18.72;41.82;101984.06;5101271;27;45369;-58
2021/11/16 11:47:52;;;;;;;;;20.00;11.67;;;;;18.72;41.91;101986.72;5099559;27;46012;-58
2021/11/16 11:50:19;;;;;;;;;21.00;14.00;;;;;18.72;42.05;101981.41;5100793;27;45759;-59